createdAt,value
2023-03-29T00:12:34.236Z,3.91
2023-03-29T00:32:34.248Z,4.46
2023-03-29T00:52:34.239Z,4.58
2023-03-29T01:12:34.246Z,4.55
2023-03-29T01:32:34.246Z,4.28
2023-03-29T01:52:34.242Z,4.23
2023-03-29T02:12:34.274Z,4.21
2023-03-29T02:32:34.249Z,4.13
2023-03-29T02:52:34.266Z,4.35
2023-03-29T03:12:34.252Z,4.37
2023-03-29T03:32:34.135Z,4.39
2023-03-29T03:52:34.155Z,4.25
2023-03-29T04:12:34.150Z,3.96
2023-03-29T04:32:34.167Z,3.63
2023-03-29T04:52:34.172Z,3.84
2023-03-29T05:12:34.173Z,3.99
2023-03-29T05:52:34.195Z,4.25
2023-03-29T06:12:34.221Z,4.66
2023-03-29T06:32:34.228Z,5.00
2023-03-29T06:52:34.210Z,5.96
2023-03-29T07:12:34.221Z,7.42
2023-03-29T07:32:34.228Z,7.97
2023-03-29T07:52:34.224Z,8.34
2023-03-29T08:12:34.120Z,8.80
2023-03-29T08:32:34.130Z,9.11
2023-03-29T08:52:34.131Z,9.13
2023-03-29T09:12:34.197Z,9.42
2023-03-29T09:32:34.134Z,9.74
2023-03-29T09:52:34.160Z,10.28
2023-03-29T10:12:34.140Z,10.40
2023-03-29T10:32:34.054Z,10.67
2023-03-29T10:52:34.058Z,10.72
2023-03-29T11:12:34.079Z,11.03
2023-03-29T11:32:34.051Z,11.21
2023-03-29T11:52:34.084Z,11.35
2023-03-29T12:12:34.066Z,11.50
2023-03-29T12:32:33.997Z,11.97
2023-03-29T12:52:33.984Z,12.39
2023-03-29T13:12:33.995Z,12.14
2023-03-29T13:32:33.996Z,12.60
2023-03-29T13:52:33.904Z,12.91
2023-03-29T14:12:33.917Z,13.85
2023-03-29T14:32:33.929Z,13.84
2023-03-29T14:52:33.926Z,12.65
2023-03-29T15:12:33.869Z,11.98
2023-03-29T15:32:33.856Z,11.74
2023-03-29T15:52:33.851Z,11.10
2023-03-29T16:12:33.856Z,10.69
2023-03-29T16:32:33.764Z,10.59
2023-03-29T16:52:33.766Z,10.48
2023-03-29T17:12:33.769Z,10.59
2023-03-29T17:32:33.772Z,10.34
2023-03-29T17:52:33.793Z,10.03
2023-03-29T18:12:33.689Z,9.86
2023-03-29T18:32:33.706Z,9.76
2023-03-29T18:52:33.714Z,9.43
2023-03-29T19:12:33.727Z,9.07
2023-03-29T19:32:33.730Z,8.81
2023-03-29T19:52:33.726Z,8.56
2023-03-29T20:12:33.635Z,8.44
2023-03-29T20:32:33.637Z,8.53
2023-03-29T20:52:33.651Z,8.63
2023-03-29T21:12:33.664Z,8.53
2023-03-29T21:32:33.672Z,8.56
2023-03-29T21:52:33.672Z,8.39
2023-03-29T22:12:33.568Z,8.01
2023-03-29T22:32:33.565Z,7.89
2023-03-29T22:52:33.588Z,8.01
2023-03-29T23:12:33.594Z,7.92
2023-03-29T23:32:33.591Z,7.84
2023-03-29T23:52:33.584Z,7.79
